Time;durP1;ratioP1;P1;durP2;ratioP2;P2;SDS_P1;SDS_P2;PMS_P1;PMS_P2;Temp;Humidity;BMP_temperature;BMP_pressure;BME280_temperature;BME280_humidity;BME280_pressure;Samples;Min_cycle;Max_cycle;Signal;HPM_P1;HPM_P2
2023/08/12 01:30:01;;;;;;;33.08;30.67;;;;;;;;;;4986379;23;20073;-96
2023/08/12 02:37:29;;;;;;;36.92;34.10;;;;;;;;;;5104688;23;20068;-96
2023/08/12 02:56:38;;;;;;;;;;;;;;;;;;;;;
2023/08/12 03:11:03;;;;;;;33.10;30.55;;;;;;;;;;4825442;29;20116;-96
2023/08/12 04:24:17;;;;;;;40.15;37.60;;;;;;;;;;4893267;29;20031;-96
2023/08/12 04:26:43;;;;;;;43.67;40.95;;;;;;;;;;4873957;29;20097;-96
2023/08/12 04:29:17;;;;;;;46.28;43.25;;;;;;;;;;4872915;29;20061;-96
2023/08/12 04:31:45;;;;;;;47.67;44.70;;;;;;;;;;4875416;29;20037;-95
2023/08/12 04:34:14;;;;;;;51.95;48.83;;;;;;;;;;4873483;29;20018;-96
2023/08/12 04:36:46;;;;;;;49.10;46.08;;;;;;;;;;4876162;29;20528;-96
2023/08/12 04:39:14;;;;;;;44.95;42.15;;;;;;;;;;4875038;29;20021;-96
2023/08/12 04:42:09;;;;;;;59.13;55.55;;;;;;;;;;4853264;29;20029;-96
2023/08/12 04:44:39;;;;;;;50.63;47.30;;;;;;;;;;4833887;29;20089;-96
2023/08/12 04:47:19;;;;;;;52.20;49.03;;;;;;;;;;4871789;29;20474;-96
2023/08/12 04:49:58;;;;;;;47.80;44.83;;;;;;;;;;4868205;29;20097;-96
2023/08/12 04:52:26;;;;;;;61.03;57.30;;;;;;;;;;4868825;29;20401;-95
2023/08/12 04:58:46;;;;;;;47.78;44.60;;;;;;;;;;4812357;29;20057;-95
2023/08/12 05:01:24;;;;;;;49.20;46.17;;;;;;;;;;4875691;29;20042;-95
2023/08/12 05:03:55;;;;;;;52.38;49.22;;;;;;;;;;4876964;29;20037;-96
2023/08/12 05:06:58;;;;;;;50.78;47.45;;;;;;;;;;4891058;29;20483;-95
2023/08/12 05:09:48;;;;;;;;;;;;;;;;;;;;;
2023/08/12 05:12:47;;;;;;;;;;;;;;;;;;;;;
2023/08/12 05:15:40;;;;;;;;;;;;;;;;;;;;;
2023/08/12 05:18:29;;;;;;;;;;;;;;;;;;;;;
2023/08/12 05:21:26;;;;;;;;;;;;;;;;;;;;;
2023/08/12 06:16:34;;;;;;;309.98;291.10;;;;;;;;;;4873799;29;20052;-96
2023/08/12 06:19:43;;;;;;;291.55;274.38;;;;;;;;;;4854659;29;20543;-96
2023/08/12 06:22:28;;;;;;;244.65;230.43;;;;;;;;;;4830619;29;20154;-96
2023/08/12 06:24:56;;;;;;;256.70;240.98;;;;;;;;;;4830103;29;20042;-96
2023/08/12 06:30:47;;;;;;;215.73;203.25;;;;;;;;;;4814500;29;20115;-95
2023/08/12 06:36:29;;;;;;;206.00;194.27;;;;;;;;;;4810961;29;20027;-95
2023/08/12 06:52:20;;;;;;;;;;;;;;;;;;;;;
2023/08/12 07:00:07;;;;;;;165.70;156.27;;;;;;;;;;5259229;24;20064;-96
2023/08/12 07:02:36;;;;;;;164.45;155.38;;;;;;;;;;4876994;29;20033;-94
2023/08/12 07:05:06;;;;;;;147.35;139.25;;;;;;;;;;4874928;29;20028;-96
2023/08/12 07:07:38;;;;;;;64.82;61.15;;;;;;;;;;4871862;29;20089;-96
2023/08/12 07:15:44;;;;;;;183.02;172.68;;;;;;;;;;5198454;23;20057;-95
2023/08/12 07:18:19;;;;;;;186.48;175.85;;;;;;;;;;4869719;29;20039;-96
2023/08/12 07:20:52;;;;;;;151.30;142.75;;;;;;;;;;4870961;29;20037;-93
2023/08/12 07:23:21;;;;;;;178.25;167.73;;;;;;;;;;4869854;29;20029;-96
2023/08/12 07:56:39;;;;;;;;;;;;;;;;;;;;;
2023/08/12 08:28:54;;;;;;;246.98;231.93;;;;;;;;;;5618990;23;20072;-94
2023/08/12 08:31:20;;;;;;;225.70;211.65;;;;;;;;;;4873239;29;20092;-96
2023/08/12 08:33:49;;;;;;;211.50;199.13;;;;;;;;;;4869854;29;20029;-96
2023/08/12 08:36:20;;;;;;;224.77;210.90;;;;;;;;;;4870048;29;20092;-96
2023/08/12 08:38:55;;;;;;;217.50;204.80;;;;;;;;;;4878650;29;20037;-96
2023/08/12 08:41:22;;;;;;;236.13;222.13;;;;;;;;;;4875342;29;20033;-96
2023/08/12 08:44:13;;;;;;;226.57;213.27;;;;;;;;;;4874155;29;20093;-96
2023/08/12 08:46:59;;;;;;;254.30;239.17;;;;;;;;;;4878446;29;20033;-96
2023/08/12 08:49:38;;;;;;;255.15;239.95;;;;;;;;;;4945058;24;20121;-96
2023/08/12 09:01:22;;;;;;;;;;;;;;;;;;;;;
2023/08/12 10:23:30;;;;;;;296.63;278.15;;;;;;;;;;5563251;23;20049;-95
2023/08/12 10:31:40;;;;;;;301.27;282.25;;;;;;;;;;5727044;23;20038;-96
2023/08/12 10:34:06;;;;;;;306.85;288.00;;;;;;;;;;4865272;29;20025;-94
2023/08/12 10:36:42;;;;;;;320.45;300.48;;;;;;;;;;4867130;29;20037;-96
2023/08/12 10:45:09;;;;;;;384.90;360.30;;;;;;;;;;4829292;29;20569;-96
2023/08/12 10:47:44;;;;;;;347.48;324.50;;;;;;;;;;4845696;29;20029;-96
2023/08/12 10:50:29;;;;;;;301.85;283.33;;;;;;;;;;4848050;29;20041;-94
2023/08/12 10:52:55;;;;;;;310.70;292.10;;;;;;;;;;4853192;29;20125;-96
2023/08/12 10:55:21;;;;;;;309.63;290.92;;;;;;;;;;4846669;29;20072;-94
2023/08/12 10:57:50;;;;;;;338.40;317.58;;;;;;;;;;4855801;29;20033;-95
2023/08/12 11:00:17;;;;;;;305.95;288.05;;;;;;;;;;4870592;29;20116;-95
2023/08/12 11:03:10;;;;;;;289.20;271.48;;;;;;;;;;4869415;29;20060;-96
2023/08/12 11:05:39;;;;;;;;;;;;;;;;;;4834323;29;20057;-96
2023/08/12 11:08:06;;;;;;;287.05;270.13;;;;;;;;;;4874662;29;19903;-93
2023/08/12 11:10:33;;;;;;;304.55;284.10;;;;;;;;;;4874816;29;20053;-96
2023/08/12 11:12:59;;;;;;;278.40;261.85;;;;;;;;;;4870399;29;20033;-94
2023/08/12 11:15:36;;;;;;;343.67;314.35;;;;;;;;;;4884929;29;20442;-96
2023/08/12 11:18:20;;;;;;;;;;;;;;;;;;;;;
2023/08/12 11:20:56;;;;;;;293.55;276.02;;;;;;;;;;4887164;29;20029;-95
2023/08/12 11:23:23;;;;;;;328.73;309.00;;;;;;;;;;4866398;29;20068;-94
2023/08/12 11:25:50;;;;;;;276.00;259.70;;;;;;;;;;4851834;29;20056;-94
2023/08/12 11:28:21;;;;;;;272.85;257.00;;;;;;;;;;4853197;29;20060;-93
2023/08/12 11:30:47;;;;;;;327.80;307.55;;;;;;;;;;4867947;29;20045;-94
2023/08/12 11:33:18;;;;;;;336.63;315.80;;;;;;;;;;4867536;29;20049;-96
2023/08/12 11:35:44;;;;;;;277.02;260.85;;;;;;;;;;4866633;29;20040;-95
2023/08/12 11:38:10;;;;;;;282.88;265.88;;;;;;;;;;4866960;29;20033;-95
2023/08/12 11:40:42;;;;;;;307.38;288.27;;;;;;;;;;4867113;29;20048;-96
2023/08/12 11:43:08;;;;;;;325.02;304.77;;;;;;;;;;4868845;29;20036;-96
2023/08/12 11:45:35;;;;;;;331.15;311.25;;;;;;;;;;4889831;23;20009;-94
2023/08/12 11:48:01;;;;;;;316.23;297.48;;;;;;;;;;4867659;29;20025;-95
2023/08/12 11:50:33;;;;;;;288.10;270.98;;;;;;;;;;4871684;29;20045;-96
2023/08/12 11:53:00;;;;;;;303.90;285.20;;;;;;;;;;4868934;29;20029;-96
2023/08/12 11:55:26;;;;;;;326.48;307.23;;;;;;;;;;4869024;29;20044;-94
2023/08/12 11:57:52;;;;;;;321.48;302.13;;;;;;;;;;4866845;29;20112;-95
2023/08/12 12:00:18;;;;;;;279.70;262.92;;;;;;;;;;4869732;29;20090;-95
2023/08/12 12:02:52;;;;;;;294.33;276.55;;;;;;;;;;4867065;29;20138;-91
2023/08/12 12:08:26;;;;;;;296.42;279.10;;;;;;;;;;5066399;23;20140;-96
2023/08/12 13:45:39;;;;;;;278.58;261.70;;;;;;;;;;4829699;29;20058;-96
2023/08/12 14:14:56;;;;;;;311.80;292.95;;;;;;;;;;5808530;23;20052;-96
2023/08/12 14:24:24;;;;;;;321.73;302.52;;;;;;;;;;4813693;29;20046;-94
2023/08/12 14:52:40;;;;;;;378.27;354.25;;;;;;;;;;5310502;23;20132;-93
2023/08/12 15:17:31;;;;;;;269.02;250.85;;;;;;;;;;5411410;23;20041;-95
2023/08/12 15:20:19;;;;;;;383.85;358.02;;;;;;;;;;4881481;29;20072;-95
2023/08/12 15:33:33;;;;;;;317.02;297.20;;;;;;;;;;5355423;23;20057;-95
2023/08/12 15:36:05;;;;;;;399.38;373.73;;;;;;;;;;4872733;29;20033;-96
2023/08/12 15:44:25;;;;;;;314.25;292.55;;;;;;;;;;5770793;23;20064;-94
2023/08/12 15:46:51;;;;;;;373.23;348.60;;;;;;;;;;4944501;23;20152;-96
2023/08/12 20:02:03;;;;;;;90.95;84.75;;;;;;;;;;5748438;23;20118;-94
